Time;durP1;ratioP1;P1;durP2;ratioP2;P2;SDS_P1;SDS_P2;PMS_P1;PMS_P2;Temp;Humidity;BMP_temperature;BMP_pressure;BME280_temperature;BME280_humidity;BME280_pressure;Samples;Min_cycle;Max_cycle;Signal;HPM_P1;HPM_P2
2021/09/23 00:01:51;;;;;;;8.02;3.45;;;;;;;;;;4900357;29;20028;-78
2021/09/23 00:04:34;;;;;;;7.47;3.78;;;;;;;;;;4900187;29;20032;-78
2021/09/23 00:07:01;;;;;;;6.45;3.17;;;;;;;;;;4900171;29;20047;-80
2021/09/23 00:09:27;;;;;;;7.22;4.15;;;;;;;;;;4917037;29;20028;-78
2021/09/23 00:11:54;;;;;;;6.80;3.83;;;;;;;;;;4900289;29;20032;-79
2021/09/23 00:14:20;;;;;;;8.05;4.32;;;;;;;;;;4900128;29;20055;-79
2021/09/23 00:16:47;;;;;;;6.75;3.80;;;;;;;;;;4919058;29;20140;-79
2021/09/23 00:19:13;;;;;;;7.57;4.20;;;;;;;;;;4920831;29;20028;-79
2021/09/23 00:21:39;;;;;;;7.22;4.22;;;;;;;;;;4903645;29;20042;-78
2021/09/23 00:24:06;;;;;;;7.63;4.07;;;;;;;;;;4921031;29;20036;-79
2021/09/23 00:26:32;;;;;;;8.02;4.50;;;;;;;;;;4920367;29;20062;-79
2021/09/23 00:28:59;;;;;;;11.18;4.32;;;;;;;;;;4920513;29;20028;-79
2021/09/23 00:31:25;;;;;;;7.53;4.07;;;;;;;;;;4903464;29;20028;-78
2021/09/23 00:33:52;;;;;;;8.13;4.78;;;;;;;;;;4903367;29;20167;-79
2021/09/23 00:36:18;;;;;;;9.63;4.82;;;;;;;;;;4920403;29;20035;-78
2021/09/23 00:38:44;;;;;;;8.98;4.45;;;;;;;;;;4903204;29;20114;-79
2021/09/23 00:41:11;;;;;;;9.85;4.82;;;;;;;;;;4920306;29;20032;-79
2021/09/23 00:43:37;;;;;;;6.22;3.50;;;;;;;;;;4920206;29;20474;-79
2021/09/23 00:46:03;;;;;;;9.82;4.10;;;;;;;;;;4920402;29;20072;-79
2021/09/23 00:48:30;;;;;;;8.00;4.40;;;;;;;;;;4903168;29;20036;-79
2021/09/23 00:50:58;;;;;;;10.30;4.95;;;;;;;;;;4903059;29;20032;-79
2021/09/23 00:53:24;;;;;;;6.82;3.80;;;;;;;;;;4903131;29;20045;-78
2021/09/23 00:55:51;;;;;;;8.57;4.22;;;;;;;;;;4902947;29;20028;-79
2021/09/23 00:58:18;;;;;;;7.53;4.75;;;;;;;;;;4919948;29;20035;-79
2021/09/23 01:00:44;;;;;;;7.05;4.38;;;;;;;;;;4919917;29;20037;-79
2021/09/23 01:03:14;;;;;;;7.10;4.45;;;;;;;;;;4919855;29;20107;-79
2021/09/23 01:05:41;;;;;;;6.60;4.05;;;;;;;;;;4903623;29;20047;-78
2021/09/23 01:08:07;;;;;;;6.97;4.10;;;;;;;;;;4902708;29;20035;-77
2021/09/23 01:10:33;;;;;;;11.20;4.68;;;;;;;;;;4919728;29;20024;-77
2021/09/23 01:12:59;;;;;;;7.90;4.45;;;;;;;;;;4920238;29;20067;-79
2021/09/23 01:15:25;;;;;;;7.75;4.28;;;;;;;;;;4919404;29;20123;-80
2021/09/23 01:17:52;;;;;;;6.05;3.40;;;;;;;;;;4919608;29;20027;-79
2021/09/23 01:20:19;;;;;;;6.93;4.00;;;;;;;;;;4920095;29;20496;-79
2021/09/23 01:22:45;;;;;;;6.00;3.53;;;;;;;;;;4920124;29;20039;-79
2021/09/23 01:25:16;;;;;;;6.93;3.72;;;;;;;;;;4919795;29;20025;-79
2021/09/23 01:27:42;;;;;;;9.65;3.78;;;;;;;;;;4919218;29;20036;-79
2021/09/23 01:30:08;;;;;;;5.65;3.35;;;;;;;;;;4919383;29;20035;-77
2021/09/23 01:32:35;;;;;;;7.38;3.38;;;;;;;;;;4902343;29;20504;-79
2021/09/23 01:35:02;;;;;;;7.15;3.38;;;;;;;;;;4919274;29;20028;-79
2021/09/23 01:37:29;;;;;;;5.90;3.20;;;;;;;;;;4902215;29;20119;-79
2021/09/23 01:39:55;;;;;;;7.05;3.70;;;;;;;;;;4902251;29;20043;-80
2021/09/23 01:42:21;;;;;;;11.43;4.20;;;;;;;;;;4919711;29;20181;-79
2021/09/23 01:44:48;;;;;;;7.32;3.80;;;;;;;;;;4919071;29;20398;-79
2021/09/23 01:47:14;;;;;;;6.22;3.65;;;;;;;;;;4919061;29;20044;-79
2021/09/23 01:49:41;;;;;;;8.15;3.17;;;;;;;;;;4919029;29;20024;-79
2021/09/23 01:52:07;;;;;;;6.53;3.67;;;;;;;;;;4919049;29;20032;-79
2021/09/23 01:54:33;;;;;;;7.18;3.58;;;;;;;;;;4919507;29;20137;-79
2021/09/23 01:57:00;;;;;;;9.45;3.75;;;;;;;;;;4918886;29;20086;-79
2021/09/23 01:59:26;;;;;;;6.30;3.20;;;;;;;;;;4901866;29;20165;-78
2021/09/23 02:01:52;;;;;;;6.75;3.25;;;;;;;;;;4901863;29;20025;-79
2021/09/23 02:04:19;;;;;;;6.78;3.05;;;;;;;;;;4918891;29;20028;-79
2021/09/23 02:06:45;;;;;;;8.43;3.95;;;;;;;;;;4901690;29;20172;-78
2021/09/23 02:09:11;;;;;;;7.80;4.10;;;;;;;;;;4901768;29;20083;-80
2021/09/23 02:11:38;;;;;;;7.60;3.95;;;;;;;;;;4919177;29;20579;-79
2021/09/23 02:14:05;;;;;;;6.88;3.30;;;;;;;;;;4919170;29;20034;-79
2021/09/23 02:16:31;;;;;;;6.30;3.15;;;;;;;;;;4901384;29;20048;-79
2021/09/23 02:18:58;;;;;;;8.95;3.55;;;;;;;;;;4918533;29;20024;-79
2021/09/23 02:21:24;;;;;;;6.70;3.20;;;;;;;;;;4918417;29;20536;-80
2021/09/23 02:23:51;;;;;;;9.18;3.72;;;;;;;;;;4918486;29;20404;-79
2021/09/23 02:26:18;;;;;;;7.05;3.70;;;;;;;;;;4918846;29;20031;-79
2021/09/23 02:28:44;;;;;;;5.30;3.10;;;;;;;;;;4901411;29;20076;-79
2021/09/23 02:31:11;;;;;;;5.25;2.95;;;;;;;;;;4918321;29;20048;-79
2021/09/23 02:33:37;;;;;;;5.70;3.17;;;;;;;;;;4918234;29;20477;-79
2021/09/23 02:36:04;;;;;;;4.78;2.90;;;;;;;;;;4918448;29;20067;-79
2021/09/23 02:38:30;;;;;;;6.43;3.30;;;;;;;;;;4918222;29;20099;-79
2021/09/23 02:40:57;;;;;;;8.02;3.60;;;;;;;;;;4918129;29;20084;-79
2021/09/23 02:43:23;;;;;;;6.30;3.45;;;;;;;;;;4918119;29;20035;-79
2021/09/23 02:45:50;;;;;;;7.60;3.50;;;;;;;;;;4918072;29;20051;-79
2021/09/23 02:48:16;;;;;;;6.90;3.58;;;;;;;;;;4917918;29;20036;-79
2021/09/23 02:50:42;;;;;;;7.30;3.85;;;;;;;;;;4917936;29;20027;-79
2021/09/23 02:53:09;;;;;;;8.65;3.08;;;;;;;;;;4900915;29;20032;-79
2021/09/23 02:55:35;;;;;;;5.30;2.83;;;;;;;;;;4918413;29;20024;-79
2021/09/23 02:58:02;;;;;;;5.30;2.78;;;;;;;;;;4900793;29;20043;-80
2021/09/23 03:00:28;;;;;;;5.93;2.70;;;;;;;;;;4917828;29;20024;-79
2021/09/23 03:02:55;;;;;;;4.10;2.53;;;;;;;;;;4900714;29;20036;-79
2021/09/23 03:05:24;;;;;;;4.07;2.40;;;;;;;;;;4917699;29;20104;-78
2021/09/23 03:07:50;;;;;;;5.78;2.83;;;;;;;;;;4917591;29;20046;-79
2021/09/23 03:10:17;;;;;;;4.82;2.40;;;;;;;;;;4917650;29;20036;-79
2021/09/23 03:12:43;;;;;;;4.82;2.83;;;;;;;;;;4917632;29;20537;-80
2021/09/23 03:15:09;;;;;;;6.00;2.90;;;;;;;;;;4917772;29;20462;-79
2021/09/23 03:17:36;;;;;;;8.55;3.38;;;;;;;;;;4900553;29;20092;-80
2021/09/23 03:20:03;;;;;;;4.68;2.83;;;;;;;;;;4917524;29;20039;-79
2021/09/23 03:22:29;;;;;;;16.52;3.50;;;;;;;;;;4900383;29;20549;-80
2021/09/23 03:24:56;;;;;;;4.70;2.80;;;;;;;;;;4900489;29;20036;-79
2021/09/23 03:27:22;;;;;;;4.60;2.80;;;;;;;;;;4918081;29;20382;-79
2021/09/23 03:29:49;;;;;;;4.38;2.53;;;;;;;;;;4900384;29;20024;-79
2021/09/23 03:32:15;;;;;;;8.45;3.20;;;;;;;;;;4917269;29;20028;-79
2021/09/23 03:34:42;;;;;;;6.22;3.03;;;;;;;;;;4917364;29;20493;-79
2021/09/23 03:37:08;;;;;;;8.13;2.70;;;;;;;;;;4917248;29;20490;-79
2021/09/23 03:39:34;;;;;;;8.30;3.53;;;;;;;;;;4917307;29;20024;-79
2021/09/23 03:42:01;;;;;;;6.65;3.20;;;;;;;;;;4917357;29;20168;-79
2021/09/23 03:44:27;;;;;;;8.55;3.40;;;;;;;;;;4917327;29;20028;-80
2021/09/23 03:46:55;;;;;;;7.88;3.50;;;;;;;;;;4900143;29;20087;-79
2021/09/23 03:49:22;;;;;;;10.10;3.58;;;;;;;;;;4900240;29;20139;-77
2021/09/23 03:51:48;;;;;;;8.73;3.65;;;;;;;;;;4902347;29;20492;-79
2021/09/23 03:54:15;;;;;;;8.50;3.88;;;;;;;;;;4921189;29;20024;-77
2021/09/23 03:56:42;;;;;;;8.60;3.05;;;;;;;;;;4904179;29;20028;-79
2021/09/23 03:59:08;;;;;;;7.72;3.50;;;;;;;;;;4921690;29;20091;-78
2021/09/23 04:01:34;;;;;;;9.15;3.97;;;;;;;;;;4921095;29;20482;-79
2021/09/23 04:04:00;;;;;;;7.40;3.45;;;;;;;;;;4904131;29;20024;-79
2021/09/23 04:06:26;;;;;;;8.95;3.08;;;;;;;;;;4903880;29;20482;-76
2021/09/23 04:08:53;;;;;;;9.25;4.20;;;;;;;;;;4904020;29;20047;-79
2021/09/23 04:11:19;;;;;;;6.28;3.53;;;;;;;;;;4921715;29;20028;-78
2021/09/23 04:13:45;;;;;;;5.57;3.15;;;;;;;;;;4903874;29;20024;-79
2021/09/23 04:16:12;;;;;;;8.35;3.50;;;;;;;;;;4900466;29;20505;-80
2021/09/23 04:18:38;;;;;;;5.30;3.35;;;;;;;;;;4900670;29;20481;-77
2021/09/23 04:21:04;;;;;;;6.28;2.92;;;;;;;;;;4900728;29;20024;-80
2021/09/23 04:23:30;;;;;;;7.72;3.63;;;;;;;;;;4902515;29;20466;-78
2021/09/23 04:25:56;;;;;;;7.03;3.38;;;;;;;;;;4900674;29;20020;-80
2021/09/23 04:28:23;;;;;;;6.35;3.22;;;;;;;;;;4902106;29;20041;-79
2021/09/23 04:30:49;;;;;;;9.73;3.45;;;;;;;;;;4901710;29;20036;-79
2021/09/23 04:33:15;;;;;;;9.27;3.85;;;;;;;;;;4901628;29;20044;-80
2021/09/23 04:35:41;;;;;;;8.07;3.50;;;;;;;;;;4901468;29;20033;-79
2021/09/23 04:38:07;;;;;;;6.32;3.60;;;;;;;;;;4901596;29;20113;-78
2021/09/23 04:40:34;;;;;;;6.40;3.45;;;;;;;;;;4900548;29;20438;-79
2021/09/23 04:43:01;;;;;;;8.15;3.63;;;;;;;;;;4900551;29;20120;-79
2021/09/23 04:45:27;;;;;;;6.85;3.67;;;;;;;;;;4900294;29;20478;-79
2021/09/23 04:47:53;;;;;;;9.02;3.63;;;;;;;;;;4900101;29;20041;-79
2021/09/23 04:50:19;;;;;;;6.35;3.97;;;;;;;;;;4901433;29;20112;-79
2021/09/23 04:52:46;;;;;;;12.57;4.13;;;;;;;;;;4900025;29;20410;-79
2021/09/23 04:55:12;;;;;;;5.88;3.30;;;;;;;;;;4901869;29;20032;-79
2021/09/23 04:57:39;;;;;;;8.55;4.45;;;;;;;;;;4901249;29;20052;-79
2021/09/23 05:00:06;;;;;;;6.05;3.38;;;;;;;;;;4901196;29;20024;-79
2021/09/23 05:02:33;;;;;;;8.35;4.05;;;;;;;;;;4900678;29;20036;-79
2021/09/23 05:04:59;;;;;;;7.60;3.80;;;;;;;;;;4901029;29;20100;-79
2021/09/23 05:07:26;;;;;;;7.57;4.32;;;;;;;;;;4901173;29;20092;-78
2021/09/23 05:09:52;;;;;;;9.43;3.88;;;;;;;;;;4899681;29;20021;-79
2021/09/23 05:12:18;;;;;;;10.77;4.55;;;;;;;;;;4899737;29;20040;-79
2021/09/23 05:14:44;;;;;;;8.73;3.90;;;;;;;;;;4900973;29;20442;-79
2021/09/23 05:17:10;;;;;;;9.73;4.53;;;;;;;;;;4918336;29;20067;-80
2021/09/23 05:19:37;;;;;;;10.05;4.68;;;;;;;;;;4919668;29;20393;-79
2021/09/23 05:22:03;;;;;;;14.65;6.18;;;;;;;;;;4902287;29;20027;-77
2021/09/23 05:24:29;;;;;;;11.45;4.85;;;;;;;;;;4902635;29;20030;-79
2021/09/23 05:26:55;;;;;;;10.13;4.78;;;;;;;;;;4919241;29;20043;-78
2021/09/23 05:29:22;;;;;;;9.50;4.82;;;;;;;;;;4920018;29;20028;-79
2021/09/23 05:31:48;;;;;;;10.55;5.03;;;;;;;;;;4919367;29;20115;-77
2021/09/23 05:34:14;;;;;;;10.00;5.15;;;;;;;;;;4902370;29;20024;-76
2021/09/23 05:36:40;;;;;;;15.40;5.28;;;;;;;;;;4902517;29;20028;-78
2021/09/23 05:39:08;;;;;;;8.80;4.30;;;;;;;;;;4902382;29;20101;-77
2021/09/23 05:41:34;;;;;;;16.42;5.15;;;;;;;;;;4902263;29;20039;-79
2021/09/23 05:44:00;;;;;;;6.63;3.92;;;;;;;;;;4902198;29;20028;-77
2021/09/23 05:46:27;;;;;;;10.70;4.25;;;;;;;;;;4902022;29;20043;-78
2021/09/23 05:48:54;;;;;;;11.50;4.72;;;;;;;;;;4919174;29;20032;-79
2021/09/23 05:51:20;;;;;;;8.43;4.05;;;;;;;;;;4915671;29;20099;-80
2021/09/23 05:53:46;;;;;;;11.07;4.22;;;;;;;;;;4916112;29;20059;-80
2021/09/23 05:56:12;;;;;;;12.50;5.53;;;;;;;;;;4901893;29;20456;-81
2021/09/23 05:58:38;;;;;;;8.10;4.03;;;;;;;;;;4918739;29;20102;-80
2021/09/23 06:01:04;;;;;;;8.93;4.40;;;;;;;;;;4918717;29;20036;-79
2021/09/23 06:03:30;;;;;;;8.32;3.83;;;;;;;;;;4918639;29;20032;-80
2021/09/23 06:05:56;;;;;;;8.90;4.15;;;;;;;;;;4901805;29;20480;-78
2021/09/23 06:08:22;;;;;;;9.55;4.50;;;;;;;;;;4901602;29;20090;-78
2021/09/23 06:10:49;;;;;;;6.10;4.22;;;;;;;;;;4901489;29;20389;-78
2021/09/23 06:13:15;;;;;;;10.93;5.40;;;;;;;;;;4900952;29;20031;-80
2021/09/23 06:15:41;;;;;;;8.02;5.20;;;;;;;;;;4918259;29;20097;-78
2021/09/23 06:18:07;;;;;;;8.25;4.47;;;;;;;;;;4918845;29;20032;-78
2021/09/23 06:20:33;;;;;;;11.18;4.25;;;;;;;;;;4901427;29;20124;-80
2021/09/23 06:22:59;;;;;;;7.18;4.15;;;;;;;;;;4901406;29;20541;-79
2021/09/23 06:25:26;;;;;;;16.63;4.63;;;;;;;;;;4901413;29;20028;-79
2021/09/23 06:27:52;;;;;;;10.88;4.10;;;;;;;;;;4901130;29;20135;-79
2021/09/23 06:30:18;;;;;;;11.65;3.50;;;;;;;;;;4901214;29;20028;-81
2021/09/23 06:32:44;;;;;;;11.50;3.08;;;;;;;;;;4918239;29;20028;-78
2021/09/23 06:35:11;;;;;;;8.63;2.90;;;;;;;;;;4901153;29;20024;-78
2021/09/23 06:37:37;;;;;;;4.47;2.10;;;;;;;;;;4917987;29;20028;-81
2021/09/23 06:40:05;;;;;;;8.15;2.17;;;;;;;;;;4918059;29;20024;-78
2021/09/23 06:42:31;;;;;;;3.97;1.73;;;;;;;;;;4900910;29;20042;-79
2021/09/23 06:44:57;;;;;;;6.93;2.20;;;;;;;;;;4900950;29;20394;-81
2021/09/23 06:47:23;;;;;;;9.82;1.90;;;;;;;;;;4900750;29;20082;-78
2021/09/23 06:49:51;;;;;;;5.40;1.80;;;;;;;;;;4900722;29;20032;-79
2021/09/23 06:52:18;;;;;;;6.63;2.00;;;;;;;;;;4900822;29;20035;-81
2021/09/23 06:54:44;;;;;;;4.57;1.73;;;;;;;;;;4900703;29;20024;-82
2021/09/23 06:57:10;;;;;;;6.38;2.58;;;;;;;;;;4900762;29;20035;-77
2021/09/23 06:59:36;;;;;;;7.50;2.20;;;;;;;;;;4900609;29;20500;-80
2021/09/23 07:02:03;;;;;;;4.03;1.52;;;;;;;;;;4900619;29;20034;-78
2021/09/23 07:04:29;;;;;;;9.68;1.98;;;;;;;;;;4918132;29;20056;-80
2021/09/23 07:06:55;;;;;;;7.57;2.40;;;;;;;;;;4917671;29;20382;-82
2021/09/23 07:09:21;;;;;;;3.53;1.52;;;;;;;;;;4917624;29;20440;-79
2021/09/23 07:11:47;;;;;;;7.10;2.05;;;;;;;;;;4900590;29;20032;-76
2021/09/23 07:14:13;;;;;;;3.97;1.85;;;;;;;;;;4917514;29;20568;-76
2021/09/23 07:16:40;;;;;;;8.38;2.28;;;;;;;;;;4917347;29;20122;-78
2021/09/23 07:19:08;;;;;;;7.63;2.22;;;;;;;;;;4900609;29;20052;-76
2021/09/23 07:21:34;;;;;;;6.93;2.00;;;;;;;;;;4900400;29;20466;-76
2021/09/23 07:24:00;;;;;;;9.85;2.17;;;;;;;;;;4900483;29;20123;-76
2021/09/23 07:26:26;;;;;;;7.65;2.30;;;;;;;;;;4900291;29;20028;-76
2021/09/23 07:28:52;;;;;;;8.18;2.05;;;;;;;;;;4900473;29;20141;-77
2021/09/23 07:31:18;;;;;;;11.02;2.25;;;;;;;;;;4917311;29;20110;-76
2021/09/23 07:33:45;;;;;;;8.55;2.05;;;;;;;;;;4900322;29;20025;-76
2021/09/23 07:36:12;;;;;;;4.07;1.48;;;;;;;;;;4900274;29;20444;-77
2021/09/23 07:38:38;;;;;;;4.75;1.80;;;;;;;;;;4917352;29;20024;-76
2021/09/23 07:41:04;;;;;;;8.18;1.77;;;;;;;;;;4900254;29;20032;-76
2021/09/23 07:43:30;;;;;;;8.45;1.60;;;;;;;;;;4917177;29;20024;-77
2021/09/23 07:45:56;;;;;;;5.22;1.63;;;;;;;;;;4917544;29;20528;-77
2021/09/23 07:48:22;;;;;;;6.60;1.65;;;;;;;;;;4900109;29;20171;-79
2021/09/23 07:50:49;;;;;;;5.63;1.77;;;;;;;;;;4917211;29;20035;-77
2021/09/23 07:53:15;;;;;;;7.78;1.92;;;;;;;;;;4900205;29;20032;-77
2021/09/23 07:55:41;;;;;;;7.18;1.85;;;;;;;;;;4916972;29;20035;-76
2021/09/23 07:58:07;;;;;;;9.82;1.90;;;;;;;;;;4900157;29;20028;-77
2021/09/23 08:00:33;;;;;;;4.72;1.83;;;;;;;;;;4917138;29;20032;-77
2021/09/23 08:03:00;;;;;;;4.78;1.83;;;;;;;;;;4900042;29;20032;-76
2021/09/23 08:05:29;;;;;;;7.18;1.90;;;;;;;;;;4917015;29;20028;-77
2021/09/23 08:07:56;;;;;;;9.60;1.98;;;;;;;;;;4899848;29;20040;-77
2021/09/23 08:10:22;;;;;;;4.72;1.45;;;;;;;;;;4900089;29;20088;-78
2021/09/23 08:12:48;;;;;;;5.00;1.55;;;;;;;;;;4917220;29;20463;-76
2021/09/23 08:15:14;;;;;;;8.52;1.90;;;;;;;;;;4899668;29;20052;-78
2021/09/23 08:17:41;;;;;;;6.15;1.45;;;;;;;;;;4916905;29;20036;-77
2021/09/23 08:20:07;;;;;;;7.30;2.08;;;;;;;;;;4899865;29;20076;-77
2021/09/23 08:22:34;;;;;;;4.57;1.60;;;;;;;;;;4917105;29;20446;-77
2021/09/23 08:25:00;;;;;;;6.45;2.03;;;;;;;;;;4899844;29;20032;-77
2021/09/23 08:27:26;;;;;;;8.52;1.95;;;;;;;;;;4899691;29;20043;-76
2021/09/23 08:29:52;;;;;;;6.72;1.80;;;;;;;;;;4899751;29;20091;-77
2021/09/23 08:32:19;;;;;;;5.90;2.08;;;;;;;;;;4900200;29;20449;-78
2021/09/23 08:34:49;;;;;;;4.35;1.80;;;;;;;;;;4899733;29;20051;-78
2021/09/23 08:37:15;;;;;;;7.57;1.25;;;;;;;;;;4900854;29;20143;-78
2021/09/23 08:39:42;;;;;;;5.57;1.55;;;;;;;;;;4903159;29;20024;-77
2021/09/23 08:42:08;;;;;;;7.40;1.83;;;;;;;;;;4920171;29;20055;-78
2021/09/23 08:44:36;;;;;;;3.53;1.55;;;;;;;;;;4920128;29;20397;-77
2021/09/23 08:47:02;;;;;;;4.32;1.77;;;;;;;;;;4919944;29;20462;-78
2021/09/23 08:49:28;;;;;;;3.50;1.45;;;;;;;;;;4903049;29;20090;-77
2021/09/23 08:51:55;;;;;;;9.40;1.80;;;;;;;;;;4902983;29;20024;-77
2021/09/23 08:54:21;;;;;;;6.10;2.35;;;;;;;;;;4919929;29;20056;-77
2021/09/23 08:56:48;;;;;;;3.55;1.63;;;;;;;;;;4919835;29;20393;-78
2021/09/23 08:59:14;;;;;;;4.97;1.75;;;;;;;;;;4902844;29;20032;-77
2021/09/23 09:01:50;;;;;;;5.18;1.90;;;;;;;;;;4902687;29;20020;-77
2021/09/23 09:04:17;;;;;;;5.45;1.88;;;;;;;;;;4902902;29;20503;-76
2021/09/23 09:06:53;;;;;;;7.15;1.88;;;;;;;;;;4902801;29;20028;-77
2021/09/23 09:09:20;;;;;;;6.32;1.75;;;;;;;;;;4903168;29;20083;-77
2021/09/23 09:11:47;;;;;;;8.55;2.17;;;;;;;;;;4902382;29;20123;-78
2021/09/23 09:14:23;;;;;;;5.57;1.70;;;;;;;;;;4902540;29;20031;-78
2021/09/23 09:17:04;;;;;;;6.28;1.60;;;;;;;;;;4902368;29;20067;-77
2021/09/23 09:19:49;;;;;;;4.88;1.40;;;;;;;;;;4902483;29;20032;-79
2021/09/23 09:22:24;;;;;;;6.35;1.67;;;;;;;;;;4902437;29;20062;-77
2021/09/23 09:24:59;;;;;;;6.18;2.05;;;;;;;;;;4902370;29;20386;-77
2021/09/23 09:27:25;;;;;;;6.93;1.95;;;;;;;;;;4902294;29;20501;-78
2021/09/23 09:29:59;;;;;;;8.15;1.73;;;;;;;;;;4919212;29;20105;-79
2021/09/23 09:32:43;;;;;;;5.45;1.58;;;;;;;;;;4902338;29;20075;-77
2021/09/23 09:35:11;;;;;;;5.50;1.58;;;;;;;;;;4902332;29;20039;-78
2021/09/23 09:37:39;;;;;;;5.97;1.45;;;;;;;;;;4902148;29;20031;-77
2021/09/23 09:40:05;;;;;;;3.83;1.50;;;;;;;;;;4902224;29;20474;-79
2021/09/23 09:42:32;;;;;;;4.80;1.40;;;;;;;;;;4902107;29;20051;-80
2021/09/23 09:44:59;;;;;;;4.45;1.27;;;;;;;;;;4902146;29;20453;-77
2021/09/23 09:47:26;;;;;;;6.18;2.05;;;;;;;;;;4901948;29;20043;-77
2021/09/23 09:49:52;;;;;;;6.72;1.50;;;;;;;;;;4901973;29;20032;-78
2021/09/23 09:52:29;;;;;;;9.75;1.95;;;;;;;;;;4902088;29;20118;-76
2021/09/23 09:55:00;;;;;;;6.20;1.92;;;;;;;;;;4902122;29;20031;-78
2021/09/23 09:57:26;;;;;;;6.75;1.42;;;;;;;;;;4902038;29;20056;-77
2021/09/23 09:59:52;;;;;;;9.18;2.00;;;;;;;;;;4901875;29;20079;-77
2021/09/23 10:02:18;;;;;;;5.30;1.58;;;;;;;;;;4901843;29;20032;-77
2021/09/23 10:04:46;;;;;;;5.53;1.75;;;;;;;;;;4901809;29;20370;-80
2021/09/23 10:07:13;;;;;;;4.80;1.92;;;;;;;;;;4901639;29;20370;-77
2021/09/23 10:09:40;;;;;;;7.13;2.13;;;;;;;;;;4918510;29;20024;-77
2021/09/23 10:12:07;;;;;;;6.63;1.90;;;;;;;;;;4901702;29;20092;-78
2021/09/23 10:14:34;;;;;;;6.60;2.00;;;;;;;;;;4901445;29;20031;-80
2021/09/23 10:17:00;;;;;;;3.83;1.90;;;;;;;;;;4918383;29;20089;-80
2021/09/23 10:19:27;;;;;;;6.38;2.20;;;;;;;;;;4918537;29;20024;-80
2021/09/23 10:21:53;;;;;;;3.40;1.80;;;;;;;;;;4918321;29;20385;-77
2021/09/23 10:24:20;;;;;;;3.92;1.90;;;;;;;;;;4901376;29;20036;-77
2021/09/23 10:26:48;;;;;;;3.58;1.60;;;;;;;;;;4918506;29;20036;-77
2021/09/23 10:29:14;;;;;;;4.82;1.70;;;;;;;;;;4901283;29;20481;-76
2021/09/23 10:31:43;;;;;;;3.85;1.70;;;;;;;;;;4901227;29;20051;-78
2021/09/23 10:34:12;;;;;;;4.78;2.17;;;;;;;;;;4901208;29;20028;-77
2021/09/23 10:36:39;;;;;;;6.78;1.80;;;;;;;;;;4901408;29;20548;-79
2021/09/23 10:39:07;;;;;;;4.15;1.73;;;;;;;;;;4917996;29;20393;-77
2021/09/23 10:41:34;;;;;;;5.20;1.95;;;;;;;;;;4918038;29;20028;-78
2021/09/23 10:44:01;;;;;;;5.18;1.70;;;;;;;;;;4901155;29;20449;-79
2021/09/23 10:46:28;;;;;;;9.15;2.25;;;;;;;;;;4917903;29;20139;-78
2021/09/23 10:48:54;;;;;;;6.28;2.08;;;;;;;;;;4901050;29;20028;-77
2021/09/23 10:51:21;;;;;;;4.93;1.85;;;;;;;;;;4901011;29;20024;-79
2021/09/23 10:53:53;;;;;;;5.18;2.28;;;;;;;;;;4900628;29;20039;-77
2021/09/23 10:56:22;;;;;;;5.30;1.92;;;;;;;;;;4917826;29;20024;-77
2021/09/23 10:58:49;;;;;;;4.32;1.95;;;;;;;;;;4900758;29;20455;-78
2021/09/23 11:01:22;;;;;;;10.65;2.60;;;;;;;;;;4917396;29;20466;-79
2021/09/23 11:03:49;;;;;;;5.57;2.00;;;;;;;;;;4917656;29;20032;-77
2021/09/23 11:06:15;;;;;;;6.25;1.63;;;;;;;;;;4917719;29;20152;-77
2021/09/23 11:08:43;;;;;;;7.18;1.88;;;;;;;;;;4917578;29;20043;-78
2021/09/23 11:11:09;;;;;;;3.50;1.70;;;;;;;;;;4917659;29;20024;-76
2021/09/23 11:13:37;;;;;;;4.57;1.63;;;;;;;;;;4917489;29;20032;-78
2021/09/23 11:16:08;;;;;;;6.55;1.95;;;;;;;;;;4897146;29;20044;-78
2021/09/23 11:18:34;;;;;;;13.50;2.60;;;;;;;;;;4897394;29;20055;-80
2021/09/23 11:21:01;;;;;;;7.45;2.10;;;;;;;;;;4898139;29;20111;-76
2021/09/23 11:23:27;;;;;;;5.60;1.40;;;;;;;;;;4897161;29;20483;-77
2021/09/23 11:25:55;;;;;;;6.13;1.73;;;;;;;;;;4897261;29;20092;-79
2021/09/23 11:28:22;;;;;;;4.20;1.60;;;;;;;;;;4897008;29;20044;-77
2021/09/23 11:30:51;;;;;;;9.13;2.10;;;;;;;;;;4898361;29;20032;-80
2021/09/23 11:33:17;;;;;;;5.25;1.77;;;;;;;;;;4898303;29;20033;-77
2021/09/23 11:35:45;;;;;;;3.58;1.73;;;;;;;;;;4896915;29;20052;-78
2021/09/23 11:38:15;;;;;;;4.53;1.80;;;;;;;;;;4897105;29;20066;-78
2021/09/23 11:40:42;;;;;;;3.72;1.75;;;;;;;;;;4897038;29;20031;-78
2021/09/23 11:43:13;;;;;;;4.05;1.75;;;;;;;;;;4897025;29;20029;-78
2021/09/23 11:45:43;;;;;;;6.22;2.00;;;;;;;;;;4898042;29;20033;-76
2021/09/23 11:48:14;;;;;;;7.32;1.90;;;;;;;;;;4898378;29;20040;-78
2021/09/23 11:50:44;;;;;;;6.47;2.28;;;;;;;;;;4898166;29;20394;-79
2021/09/23 11:53:12;;;;;;;5.70;1.98;;;;;;;;;;4896939;29;20028;-76
2021/09/23 11:55:43;;;;;;;5.63;2.00;;;;;;;;;;4898019;29;20029;-76
2021/09/23 11:58:13;;;;;;;4.95;1.83;;;;;;;;;;4896958;29;20028;-76
2021/09/23 12:00:44;;;;;;;8.07;2.30;;;;;;;;;;4896745;29;20036;-79
2021/09/23 12:03:11;;;;;;;4.40;2.00;;;;;;;;;;4898262;29;20029;-78
2021/09/23 12:05:37;;;;;;;5.75;2.10;;;;;;;;;;4896918;29;20029;-78
2021/09/23 12:08:06;;;;;;;7.00;2.10;;;;;;;;;;4898169;29;20399;-76
2021/09/23 12:10:33;;;;;;;7.53;2.00;;;;;;;;;;4897279;29;20048;-79
2021/09/23 12:13:00;;;;;;;4.05;1.80;;;;;;;;;;4900385;29;20032;-80
2021/09/23 12:15:30;;;;;;;4.22;1.92;;;;;;;;;;4900420;29;20124;-80
2021/09/23 12:17:57;;;;;;;4.60;1.90;;;;;;;;;;4900480;29;20067;-75
2021/09/23 12:20:40;;;;;;;26.15;2.50;;;;;;;;;;4902077;29;20032;-75
2021/09/23 12:23:22;;;;;;;5.90;2.10;;;;;;;;;;4900796;29;20096;-80
2021/09/23 12:26:03;;;;;;;3.92;2.08;;;;;;;;;;4901711;29;20439;-77
2021/09/23 12:28:30;;;;;;;5.85;2.40;;;;;;;;;;4901956;29;20040;-80
2021/09/23 12:31:03;;;;;;;4.18;2.13;;;;;;;;;;4901576;29;20427;-80
2021/09/23 12:33:29;;;;;;;7.63;2.10;;;;;;;;;;4900224;29;20036;-80
2021/09/23 12:36:16;;;;;;;3.63;2.10;;;;;;;;;;4901381;29;20031;-80
2021/09/23 12:38:43;;;;;;;6.53;1.95;;;;;;;;;;4901650;29;20024;-78
2021/09/23 12:41:20;;;;;;;12.35;2.47;;;;;;;;;;4901322;29;20040;-80
2021/09/23 12:43:46;;;;;;;5.90;1.95;;;;;;;;;;4901273;29;20029;-76
2021/09/23 12:46:13;;;;;;;6.68;2.50;;;;;;;;;;4900075;29;20104;-75
2021/09/23 12:48:43;;;;;;;5.82;2.30;;;;;;;;;;4900071;29;20037;-80
2021/09/23 12:51:11;;;;;;;4.68;1.95;;;;;;;;;;4900025;29;20031;-77
2021/09/23 12:53:37;;;;;;;9.27;2.13;;;;;;;;;;4900957;29;20107;-78
2021/09/23 12:56:10;;;;;;;4.65;2.33;;;;;;;;;;4899771;29;20434;-77
2021/09/23 12:58:36;;;;;;;5.70;2.33;;;;;;;;;;4901453;29;20028;-79
2021/09/23 13:01:19;;;;;;;5.78;2.78;;;;;;;;;;4899625;29;20069;-76
2021/09/23 13:03:45;;;;;;;5.03;2.30;;;;;;;;;;4899147;29;20029;-76
2021/09/23 13:06:11;;;;;;;5.57;2.55;;;;;;;;;;4899680;29;20076;-77
2021/09/23 13:08:41;;;;;;;7.05;2.25;;;;;;;;;;4899696;29;20513;-79
2021/09/23 13:11:09;;;;;;;7.93;2.28;;;;;;;;;;4900101;29;20115;-76
2021/09/23 13:13:35;;;;;;;3.33;1.90;;;;;;;;;;4899441;29;20037;-76
2021/09/23 13:16:01;;;;;;;5.28;1.85;;;;;;;;;;4899216;29;20100;-78
2021/09/23 13:18:28;;;;;;;6.28;2.30;;;;;;;;;;4899240;29;20526;-78
2021/09/23 13:21:00;;;;;;;6.03;1.63;;;;;;;;;;4899571;29;20036;-79
2021/09/23 13:23:27;;;;;;;3.90;2.08;;;;;;;;;;4899900;29;20471;-77
2021/09/23 13:25:57;;;;;;;3.22;1.85;;;;;;;;;;4900145;29;20020;-76
2021/09/23 13:28:28;;;;;;;7.35;2.17;;;;;;;;;;4899320;29;20483;-77
2021/09/23 13:30:55;;;;;;;5.35;2.00;;;;;;;;;;4900928;29;20032;-78
2021/09/23 13:33:21;;;;;;;7.40;2.30;;;;;;;;;;4899505;29;20088;-79
2021/09/23 13:35:49;;;;;;;8.75;2.28;;;;;;;;;;4899021;29;20497;-76
2021/09/23 13:38:16;;;;;;;3.90;1.98;;;;;;;;;;4899609;29;20029;-79
2021/09/23 13:40:46;;;;;;;3.53;1.90;;;;;;;;;;4899431;29;20121;-81
2021/09/23 13:43:12;;;;;;;8.85;1.90;;;;;;;;;;4899064;29;20033;-77
2021/09/23 13:45:38;;;;;;;6.65;1.98;;;;;;;;;;4898866;29;20044;-79
2021/09/23 13:48:05;;;;;;;5.78;2.17;;;;;;;;;;4900043;29;20112;-77
2021/09/23 13:50:32;;;;;;;5.40;2.38;;;;;;;;;;4898821;29;20116;-76
2021/09/23 13:52:58;;;;;;;5.78;2.30;;;;;;;;;;4899984;29;20037;-78
2021/09/23 13:55:24;;;;;;;7.25;2.20;;;;;;;;;;4898479;29;20028;-76
2021/09/23 13:57:50;;;;;;;28.05;3.28;;;;;;;;;;4898563;29;20036;-76
2021/09/23 14:00:17;;;;;;;5.80;2.60;;;;;;;;;;4900306;29;20029;-78
2021/09/23 14:02:43;;;;;;;6.55;2.33;;;;;;;;;;4898061;29;20064;-75
2021/09/23 14:05:10;;;;;;;7.32;2.55;;;;;;;;;;4899614;29;20115;-78
2021/09/23 14:07:37;;;;;;;4.30;1.95;;;;;;;;;;4898371;29;20052;-79
2021/09/23 14:10:04;;;;;;;8.15;3.00;;;;;;;;;;4899818;29;20080;-78
2021/09/23 14:12:30;;;;;;;7.43;2.60;;;;;;;;;;4898510;29;20036;-78
2021/09/23 14:14:56;;;;;;;6.63;2.17;;;;;;;;;;4898475;29;20123;-77
2021/09/23 14:17:22;;;;;;;8.25;2.88;;;;;;;;;;4900841;29;20042;-77
2021/09/23 14:19:48;;;;;;;6.13;2.45;;;;;;;;;;4901196;29;20032;-77
2021/09/23 14:22:15;;;;;;;5.25;2.33;;;;;;;;;;4901151;29;20024;-77
2021/09/23 14:24:41;;;;;;;6.40;2.30;;;;;;;;;;4918492;29;20044;-77
2021/09/23 14:27:08;;;;;;;5.65;2.30;;;;;;;;;;4901441;29;20060;-76
2021/09/23 14:29:39;;;;;;;9.10;2.95;;;;;;;;;;4901385;29;20107;-75
2021/09/23 14:32:07;;;;;;;7.80;3.10;;;;;;;;;;4918871;29;20024;-80
2021/09/23 14:34:34;;;;;;;10.95;2.47;;;;;;;;;;4918162;29;20025;-77
2021/09/23 14:37:00;;;;;;;7.22;2.72;;;;;;;;;;4918253;29;20031;-77
2021/09/23 14:39:26;;;;;;;7.72;2.85;;;;;;;;;;4901322;29;20481;-77
2021/09/23 14:41:53;;;;;;;8.23;2.65;;;;;;;;;;4918029;29;20052;-76